CheckWX is a tool to help pilots better visualize weather data.  It is not intended as a substitute for an official pre-flight weather briefing.

21:57:35 UTC

7N0 METAR
New Orleans Downtown Heliport
New Orleans, Louisiana, USA
Current

1 hour ago

K7N0 262056Z AUTO 00000KT 10SM FEW048 34/20 A3010 RMK AO2 SLP191 T03390200 58016
Observed
May-26 @ 20:56 UTC
Visibility
10 SM
Flight Rules
VFR
Cloud Levels
  • Few at 4,800' AGL
Temperature
34°C / 93°F
Dewpoint
20°C / 68°F
Heat Index
36°C / 97°F
Humidity
44%
Altimeter
30.1" Hg
Pressure
1019.32 hPa
Previous

2 hours ago

K7N0 261956Z AUTO 05004KT 10SM SCT048 BKN055 33/21 A3012 RMK AO2 SLP199 T03280211
Observed
May-26 @ 19:56 UTC
Wind
  • 050° at 4 KTS
Visibility
10 SM
Flight Rules
VFR
Cloud Levels
  • Scattered at 4,800' AGL
  • Broken at 5,500' AGL
Temperature
33°C / 91°F
Dewpoint
21°C / 70°F
Heat Index
36°C / 96°F
Humidity
49%
Altimeter
30.12" Hg
Pressure
1020.02 hPa
Previous

3 hours ago

K7N0 261856Z AUTO 16007KT 10SM BKN048 33/21 A3013 RMK AO2 SLP202 T03280211
Observed
May-26 @ 18:56 UTC
Wind
  • 160° at 7 KTS
Visibility
10 SM
Flight Rules
VFR
Cloud Levels
  • Broken at 4,800' AGL
Temperature
33°C / 91°F
Dewpoint
21°C / 70°F
Heat Index
36°C / 96°F
Humidity
49%
Altimeter
30.13" Hg
Pressure
1020.32 hPa